sensor_id;sensor_type;location;lat;lon;timestamp;P1;durP1;ratioP1;P2;durP2;ratioP2
9138;SDS011;4604;48.616;9.548;2022-09-09T00:02:03;2.00;;;0.82;;
9138;SDS011;4604;48.616;9.548;2022-09-09T00:04:40;2.55;;;0.93;;
9138;SDS011;4604;48.616;9.548;2022-09-09T00:07:10;2.30;;;0.65;;
9138;SDS011;4604;48.616;9.548;2022-09-09T00:09:45;1.35;;;0.93;;
9138;SDS011;4604;48.616;9.548;2022-09-09T00:12:14;2.20;;;1.00;;
9138;SDS011;4604;48.616;9.548;2022-09-09T00:14:47;2.95;;;1.20;;
9138;SDS011;4604;48.616;9.548;2022-09-09T00:17:24;3.10;;;1.05;;
9138;SDS011;4604;48.616;9.548;2022-09-09T00:20:05;0.55;;;0.55;;
9138;SDS011;4604;48.616;9.548;2022-09-09T00:22:42;0.90;;;0.77;;
9138;SDS011;4604;48.616;9.548;2022-09-09T00:25:14;1.30;;;0.82;;
9138;SDS011;4604;48.616;9.548;2022-09-09T00:27:47;1.88;;;0.95;;
9138;SDS011;4604;48.616;9.548;2022-09-09T00:30:18;1.70;;;1.10;;
9138;SDS011;4604;48.616;9.548;2022-09-09T00:32:47;1.75;;;1.02;;
9138;SDS011;4604;48.616;9.548;2022-09-09T00:35:16;4.38;;;1.10;;
9138;SDS011;4604;48.616;9.548;2022-09-09T00:37:48;1.17;;;1.10;;
9138;SDS011;4604;48.616;9.548;2022-09-09T00:40:21;1.15;;;0.85;;
9138;SDS011;4604;48.616;9.548;2022-09-09T00:42:52;1.70;;;0.90;;
9138;SDS011;4604;48.616;9.548;2022-09-09T00:45:38;0.70;;;0.70;;
9138;SDS011;4604;48.616;9.548;2022-09-09T00:48:20;1.70;;;1.00;;
9138;SDS011;4604;48.616;9.548;2022-09-09T00:50:52;1.98;;;1.00;;
9138;SDS011;4604;48.616;9.548;2022-09-09T00:53:26;3.08;;;1.02;;
9138;SDS011;4604;48.616;9.548;2022-09-09T00:56:00;1.05;;;0.90;;
9138;SDS011;4604;48.616;9.548;2022-09-09T00:58:37;2.10;;;0.98;;
9138;SDS011;4604;48.616;9.548;2022-09-09T01:01:07;0.90;;;0.88;;
9138;SDS011;4604;48.616;9.548;2022-09-09T01:03:38;3.78;;;1.00;;
9138;SDS011;4604;48.616;9.548;2022-09-09T01:06:19;3.92;;;1.40;;
9138;SDS011;4604;48.616;9.548;2022-09-09T01:09:02;0.50;;;0.50;;
9138;SDS011;4604;48.616;9.548;2022-09-09T01:11:40;1.77;;;0.90;;
9138;SDS011;4604;48.616;9.548;2022-09-09T01:14:16;0.80;;;0.80;;
9138;SDS011;4604;48.616;9.548;2022-09-09T01:16:57;1.40;;;0.90;;
9138;SDS011;4604;48.616;9.548;2022-09-09T01:19:34;0.93;;;0.77;;
9138;SDS011;4604;48.616;9.548;2022-09-09T01:22:10;1.52;;;0.95;;
9138;SDS011;4604;48.616;9.548;2022-09-09T01:24:50;2.63;;;1.00;;
9138;SDS011;4604;48.616;9.548;2022-09-09T01:27:40;1.65;;;1.17;;
9138;SDS011;4604;48.616;9.548;2022-09-09T01:30:09;0.90;;;0.80;;
9138;SDS011;4604;48.616;9.548;2022-09-09T01:32:39;1.55;;;1.00;;
9138;SDS011;4604;48.616;9.548;2022-09-09T01:35:08;1.42;;;1.00;;
9138;SDS011;4604;48.616;9.548;2022-09-09T01:37:38;1.15;;;0.88;;
9138;SDS011;4604;48.616;9.548;2022-09-09T01:40:05;2.13;;;1.00;;
9138;SDS011;4604;48.616;9.548;2022-09-09T01:42:33;1.25;;;0.80;;
9138;SDS011;4604;48.616;9.548;2022-09-09T01:45:04;2.38;;;1.05;;
9138;SDS011;4604;48.616;9.548;2022-09-09T01:47:32;1.48;;;1.10;;
9138;SDS011;4604;48.616;9.548;2022-09-09T01:50:05;1.17;;;0.90;;
9138;SDS011;4604;48.616;9.548;2022-09-09T01:52:34;2.22;;;1.15;;
9138;SDS011;4604;48.616;9.548;2022-09-09T01:55:02;2.83;;;1.15;;
9138;SDS011;4604;48.616;9.548;2022-09-09T01:57:30;2.45;;;1.30;;
9138;SDS011;4604;48.616;9.548;2022-09-09T02:00:07;1.20;;;1.10;;
9138;SDS011;4604;48.616;9.548;2022-09-09T02:02:38;1.30;;;1.20;;
9138;SDS011;4604;48.616;9.548;2022-09-09T02:05:15;2.58;;;1.50;;
9138;SDS011;4604;48.616;9.548;2022-09-09T02:07:48;2.35;;;1.35;;
9138;SDS011;4604;48.616;9.548;2022-09-09T02:10:21;3.55;;;1.65;;
9138;SDS011;4604;48.616;9.548;2022-09-09T02:12:55;1.67;;;1.38;;
9138;SDS011;4604;48.616;9.548;2022-09-09T02:15:30;4.40;;;1.87;;
9138;SDS011;4604;48.616;9.548;2022-09-09T02:18:02;7.68;;;1.70;;
9138;SDS011;4604;48.616;9.548;2022-09-09T02:20:34;1.55;;;1.20;;
9138;SDS011;4604;48.616;9.548;2022-09-09T02:23:02;1.63;;;1.52;;
9138;SDS011;4604;48.616;9.548;2022-09-09T02:25:32;1.90;;;1.48;;
9138;SDS011;4604;48.616;9.548;2022-09-09T02:28:00;2.57;;;1.30;;
9138;SDS011;4604;48.616;9.548;2022-09-09T02:30:32;2.85;;;1.20;;
9138;SDS011;4604;48.616;9.548;2022-09-09T02:33:01;2.00;;;1.20;;
9138;SDS011;4604;48.616;9.548;2022-09-09T02:35:31;2.30;;;1.37;;
9138;SDS011;4604;48.616;9.548;2022-09-09T02:38:02;1.67;;;1.57;;
9138;SDS011;4604;48.616;9.548;2022-09-09T02:40:32;3.55;;;1.30;;
9138;SDS011;4604;48.616;9.548;2022-09-09T02:42:59;4.83;;;1.70;;
9138;SDS011;4604;48.616;9.548;2022-09-09T02:45:27;1.93;;;1.33;;
9138;SDS011;4604;48.616;9.548;2022-09-09T02:48:03;3.23;;;1.30;;
9138;SDS011;4604;48.616;9.548;2022-09-09T02:50:39;1.47;;;1.37;;
9138;SDS011;4604;48.616;9.548;2022-09-09T02:53:16;5.77;;;2.07;;
9138;SDS011;4604;48.616;9.548;2022-09-09T02:55:46;2.22;;;1.13;;
9138;SDS011;4604;48.616;9.548;2022-09-09T02:58:15;2.97;;;1.40;;
9138;SDS011;4604;48.616;9.548;2022-09-09T03:00:44;1.40;;;1.30;;
9138;SDS011;4604;48.616;9.548;2022-09-09T03:03:14;5.13;;;1.30;;
9138;SDS011;4604;48.616;9.548;2022-09-09T03:05:42;3.03;;;1.33;;
9138;SDS011;4604;48.616;9.548;2022-09-09T03:08:09;4.40;;;1.40;;
9138;SDS011;4604;48.616;9.548;2022-09-09T03:10:36;2.07;;;1.43;;
9138;SDS011;4604;48.616;9.548;2022-09-09T03:13:03;2.73;;;1.30;;
9138;SDS011;4604;48.616;9.548;2022-09-09T03:15:30;3.57;;;1.27;;
9138;SDS011;4604;48.616;9.548;2022-09-09T03:18:05;1.53;;;1.40;;
9138;SDS011;4604;48.616;9.548;2022-09-09T03:20:33;1.50;;;1.10;;
9138;SDS011;4604;48.616;9.548;2022-09-09T03:23:02;2.30;;;1.23;;
9138;SDS011;4604;48.616;9.548;2022-09-09T03:25:28;3.33;;;1.37;;
9138;SDS011;4604;48.616;9.548;2022-09-09T03:27:55;2.63;;;1.60;;
9138;SDS011;4604;48.616;9.548;2022-09-09T03:30:22;3.45;;;1.42;;
9138;SDS011;4604;48.616;9.548;2022-09-09T03:32:49;1.50;;;1.27;;
9138;SDS011;4604;48.616;9.548;2022-09-09T03:35:17;4.07;;;1.10;;
9138;SDS011;4604;48.616;9.548;2022-09-09T03:37:45;3.27;;;1.43;;
9138;SDS011;4604;48.616;9.548;2022-09-09T03:40:12;6.57;;;1.90;;
9138;SDS011;4604;48.616;9.548;2022-09-09T03:42:39;1.73;;;1.63;;
9138;SDS011;4604;48.616;9.548;2022-09-09T03:45:07;4.53;;;1.70;;
9138;SDS011;4604;48.616;9.548;2022-09-09T03:47:36;2.93;;;1.70;;
9138;SDS011;4604;48.616;9.548;2022-09-09T03:50:03;3.27;;;1.73;;
9138;SDS011;4604;48.616;9.548;2022-09-09T03:52:34;3.65;;;1.70;;
9138;SDS011;4604;48.616;9.548;2022-09-09T03:55:02;7.00;;;1.40;;
9138;SDS011;4604;48.616;9.548;2022-09-09T03:57:30;1.60;;;1.40;;
9138;SDS011;4604;48.616;9.548;2022-09-09T03:59:56;1.50;;;1.30;;
9138;SDS011;4604;48.616;9.548;2022-09-09T04:02:26;2.28;;;1.30;;
9138;SDS011;4604;48.616;9.548;2022-09-09T04:04:52;2.35;;;1.67;;
9138;SDS011;4604;48.616;9.548;2022-09-09T04:07:19;3.78;;;1.85;;
9138;SDS011;4604;48.616;9.548;2022-09-09T04:09:46;2.75;;;1.60;;
9138;SDS011;4604;48.616;9.548;2022-09-09T04:12:14;2.13;;;1.30;;
9138;SDS011;4604;48.616;9.548;2022-09-09T04:14:43;3.30;;;1.50;;
9138;SDS011;4604;48.616;9.548;2022-09-09T04:17:09;2.13;;;1.30;;
9138;SDS011;4604;48.616;9.548;2022-09-09T04:19:36;2.03;;;1.50;;
9138;SDS011;4604;48.616;9.548;2022-09-09T04:22:03;2.13;;;1.15;;
9138;SDS011;4604;48.616;9.548;2022-09-09T04:24:30;1.13;;;1.02;;
9138;SDS011;4604;48.616;9.548;2022-09-09T04:26:56;2.72;;;1.30;;
9138;SDS011;4604;48.616;9.548;2022-09-09T04:29:24;3.30;;;1.42;;
9138;SDS011;4604;48.616;9.548;2022-09-09T04:31:51;1.45;;;1.35;;
9138;SDS011;4604;48.616;9.548;2022-09-09T04:34:18;2.50;;;1.40;;
9138;SDS011;4604;48.616;9.548;2022-09-09T04:36:45;2.27;;;1.33;;
9138;SDS011;4604;48.616;9.548;2022-09-09T04:39:11;6.22;;;1.33;;
9138;SDS011;4604;48.616;9.548;2022-09-09T04:41:39;1.40;;;1.30;;
9138;SDS011;4604;48.616;9.548;2022-09-09T04:44:06;3.00;;;1.50;;
9138;SDS011;4604;48.616;9.548;2022-09-09T04:46:34;1.98;;;1.20;;
9138;SDS011;4604;48.616;9.548;2022-09-09T04:49:02;1.50;;;1.40;;
9138;SDS011;4604;48.616;9.548;2022-09-09T04:51:29;2.38;;;1.40;;
9138;SDS011;4604;48.616;9.548;2022-09-09T04:53:56;3.17;;;1.90;;
9138;SDS011;4604;48.616;9.548;2022-09-09T04:56:23;2.00;;;1.15;;
9138;SDS011;4604;48.616;9.548;2022-09-09T04:58:52;1.43;;;1.23;;
9138;SDS011;4604;48.616;9.548;2022-09-09T05:01:20;2.00;;;1.52;;
9138;SDS011;4604;48.616;9.548;2022-09-09T05:03:50;3.20;;;1.30;;
9138;SDS011;4604;48.616;9.548;2022-09-09T05:06:18;1.60;;;1.20;;
9138;SDS011;4604;48.616;9.548;2022-09-09T05:08:46;1.30;;;1.20;;
9138;SDS011;4604;48.616;9.548;2022-09-09T05:11:17;3.27;;;1.33;;
9138;SDS011;4604;48.616;9.548;2022-09-09T05:13:47;2.92;;;1.52;;
9138;SDS011;4604;48.616;9.548;2022-09-09T05:16:15;4.90;;;1.20;;
9138;SDS011;4604;48.616;9.548;2022-09-09T05:18:43;2.67;;;1.30;;
9138;SDS011;4604;48.616;9.548;2022-09-09T05:21:13;2.43;;;1.50;;
9138;SDS011;4604;48.616;9.548;2022-09-09T05:23:41;1.95;;;1.33;;
9138;SDS011;4604;48.616;9.548;2022-09-09T05:26:09;2.13;;;1.50;;
9138;SDS011;4604;48.616;9.548;2022-09-09T05:28:39;2.20;;;1.30;;
9138;SDS011;4604;48.616;9.548;2022-09-09T05:31:06;3.17;;;1.27;;
9138;SDS011;4604;48.616;9.548;2022-09-09T05:33:34;2.60;;;1.30;;
9138;SDS011;4604;48.616;9.548;2022-09-09T05:36:03;2.80;;;1.60;;
9138;SDS011;4604;48.616;9.548;2022-09-09T05:38:32;1.42;;;1.25;;
9138;SDS011;4604;48.616;9.548;2022-09-09T05:41:05;1.65;;;1.48;;
9138;SDS011;4604;48.616;9.548;2022-09-09T05:43:33;1.97;;;1.40;;
9138;SDS011;4604;48.616;9.548;2022-09-09T05:46:02;1.52;;;1.42;;
9138;SDS011;4604;48.616;9.548;2022-09-09T05:48:31;1.40;;;1.30;;
9138;SDS011;4604;48.616;9.548;2022-09-09T05:51:05;3.28;;;1.33;;
9138;SDS011;4604;48.616;9.548;2022-09-09T05:53:35;1.30;;;1.20;;
9138;SDS011;4604;48.616;9.548;2022-09-09T05:56:03;1.38;;;0.90;;
9138;SDS011;4604;48.616;9.548;2022-09-09T05:58:31;1.27;;;1.08;;
9138;SDS011;4604;48.616;9.548;2022-09-09T06:03:30;1.55;;;1.30;;
9138;SDS011;4604;48.616;9.548;2022-09-09T06:05:58;2.00;;;1.60;;
9138;SDS011;4604;48.616;9.548;2022-09-09T06:08:25;2.05;;;1.30;;
9138;SDS011;4604;48.616;9.548;2022-09-09T06:11:00;1.20;;;1.10;;
9138;SDS011;4604;48.616;9.548;2022-09-09T06:13:28;3.00;;;1.50;;
9138;SDS011;4604;48.616;9.548;2022-09-09T06:15:55;2.17;;;1.45;;
9138;SDS011;4604;48.616;9.548;2022-09-09T06:18:23;2.80;;;1.10;;
9138;SDS011;4604;48.616;9.548;2022-09-09T06:20:54;2.08;;;1.45;;
9138;SDS011;4604;48.616;9.548;2022-09-09T06:23:21;4.07;;;1.38;;
9138;SDS011;4604;48.616;9.548;2022-09-09T06:25:48;1.50;;;0.90;;
9138;SDS011;4604;48.616;9.548;2022-09-09T06:28:17;3.03;;;1.10;;
9138;SDS011;4604;48.616;9.548;2022-09-09T06:30:44;1.38;;;1.17;;
9138;SDS011;4604;48.616;9.548;2022-09-09T06:33:12;1.02;;;1.02;;
9138;SDS011;4604;48.616;9.548;2022-09-09T06:35:39;2.85;;;1.02;;
9138;SDS011;4604;48.616;9.548;2022-09-09T06:38:05;2.25;;;1.20;;
9138;SDS011;4604;48.616;9.548;2022-09-09T06:40:33;4.13;;;1.45;;
9138;SDS011;4604;48.616;9.548;2022-09-09T06:43:02;1.40;;;1.08;;
9138;SDS011;4604;48.616;9.548;2022-09-09T06:45:30;1.70;;;1.20;;
9138;SDS011;4604;48.616;9.548;2022-09-09T06:47:56;1.08;;;1.00;;
9138;SDS011;4604;48.616;9.548;2022-09-09T06:50:23;2.88;;;1.30;;
9138;SDS011;4604;48.616;9.548;2022-09-09T06:52:50;2.55;;;1.40;;
9138;SDS011;4604;48.616;9.548;2022-09-09T06:55:17;2.63;;;1.23;;
9138;SDS011;4604;48.616;9.548;2022-09-09T06:57:45;3.05;;;1.40;;
9138;SDS011;4604;48.616;9.548;2022-09-09T07:00:13;4.22;;;1.60;;
9138;SDS011;4604;48.616;9.548;2022-09-09T07:02:41;3.08;;;1.50;;
9138;SDS011;4604;48.616;9.548;2022-09-09T07:05:09;1.40;;;1.30;;
9138;SDS011;4604;48.616;9.548;2022-09-09T07:07:36;3.13;;;1.58;;
9138;SDS011;4604;48.616;9.548;2022-09-09T07:10:03;1.80;;;1.30;;
9138;SDS011;4604;48.616;9.548;2022-09-09T07:12:31;1.50;;;1.08;;
9138;SDS011;4604;48.616;9.548;2022-09-09T07:14:59;2.13;;;1.25;;
9138;SDS011;4604;48.616;9.548;2022-09-09T07:17:26;4.15;;;1.23;;
9138;SDS011;4604;48.616;9.548;2022-09-09T07:19:55;3.95;;;1.38;;
9138;SDS011;4604;48.616;9.548;2022-09-09T07:22:22;1.88;;;1.45;;
9138;SDS011;4604;48.616;9.548;2022-09-09T07:24:50;1.55;;;1.25;;
9138;SDS011;4604;48.616;9.548;2022-09-09T07:27:17;3.05;;;0.93;;
9138;SDS011;4604;48.616;9.548;2022-09-09T07:29:44;2.63;;;1.92;;
9138;SDS011;4604;48.616;9.548;2022-09-09T07:32:11;2.85;;;2.15;;
9138;SDS011;4604;48.616;9.548;2022-09-09T07:34:37;2.83;;;2.30;;
9138;SDS011;4604;48.616;9.548;2022-09-09T07:37:06;2.42;;;1.63;;
9138;SDS011;4604;48.616;9.548;2022-09-09T07:39:33;3.40;;;1.80;;
9138;SDS011;4604;48.616;9.548;2022-09-09T07:42:00;5.10;;;2.17;;
9138;SDS011;4604;48.616;9.548;2022-09-09T07:44:27;3.65;;;1.42;;
9138;SDS011;4604;48.616;9.548;2022-09-09T07:46:54;4.50;;;1.77;;
9138;SDS011;4604;48.616;9.548;2022-09-09T07:49:20;1.52;;;1.30;;
9138;SDS011;4604;48.616;9.548;2022-09-09T07:51:47;4.82;;;1.45;;
9138;SDS011;4604;48.616;9.548;2022-09-09T07:54:16;3.00;;;1.48;;
9138;SDS011;4604;48.616;9.548;2022-09-09T07:56:48;2.58;;;1.48;;
9138;SDS011;4604;48.616;9.548;2022-09-09T07:59:16;1.45;;;1.20;;
9138;SDS011;4604;48.616;9.548;2022-09-09T08:01:43;7.95;;;1.42;;
9138;SDS011;4604;48.616;9.548;2022-09-09T08:04:13;3.10;;;1.48;;
9138;SDS011;4604;48.616;9.548;2022-09-09T08:06:42;3.78;;;1.58;;
9138;SDS011;4604;48.616;9.548;2022-09-09T08:09:11;1.80;;;1.27;;
9138;SDS011;4604;48.616;9.548;2022-09-09T08:11:40;1.90;;;1.15;;
9138;SDS011;4604;48.616;9.548;2022-09-09T08:14:08;1.63;;;1.42;;
9138;SDS011;4604;48.616;9.548;2022-09-09T08:16:36;1.92;;;1.10;;
9138;SDS011;4604;48.616;9.548;2022-09-09T08:19:06;2.10;;;1.10;;
9138;SDS011;4604;48.616;9.548;2022-09-09T08:21:34;6.43;;;1.50;;
9138;SDS011;4604;48.616;9.548;2022-09-09T08:24:03;2.15;;;1.10;;
9138;SDS011;4604;48.616;9.548;2022-09-09T08:26:31;1.55;;;1.10;;
9138;SDS011;4604;48.616;9.548;2022-09-09T08:29:04;2.38;;;1.40;;
9138;SDS011;4604;48.616;9.548;2022-09-09T08:31:32;4.13;;;1.73;;
9138;SDS011;4604;48.616;9.548;2022-09-09T08:34:02;2.30;;;1.17;;
9138;SDS011;4604;48.616;9.548;2022-09-09T08:36:30;2.50;;;1.33;;
9138;SDS011;4604;48.616;9.548;2022-09-09T08:39:02;1.98;;;1.38;;
9138;SDS011;4604;48.616;9.548;2022-09-09T08:41:38;3.15;;;1.27;;
9138;SDS011;4604;48.616;9.548;2022-09-09T08:44:17;1.40;;;1.30;;
9138;SDS011;4604;48.616;9.548;2022-09-09T08:46:54;1.05;;;0.95;;
9138;SDS011;4604;48.616;9.548;2022-09-09T08:49:38;1.77;;;1.35;;
9138;SDS011;4604;48.616;9.548;2022-09-09T08:52:25;4.45;;;1.48;;
9138;SDS011;4604;48.616;9.548;2022-09-09T08:54:55;3.53;;;1.27;;
9138;SDS011;4604;48.616;9.548;2022-09-09T08:57:29;2.22;;;1.50;;
9138;SDS011;4604;48.616;9.548;2022-09-09T09:00:07;3.45;;;1.40;;
9138;SDS011;4604;48.616;9.548;2022-09-09T09:02:37;1.77;;;1.30;;
9138;SDS011;4604;48.616;9.548;2022-09-09T09:05:16;2.25;;;1.48;;
9138;SDS011;4604;48.616;9.548;2022-09-09T09:07:53;4.05;;;1.48;;
9138;SDS011;4604;48.616;9.548;2022-09-09T09:10:37;4.55;;;1.50;;
9138;SDS011;4604;48.616;9.548;2022-09-09T09:13:15;3.88;;;1.38;;
9138;SDS011;4604;48.616;9.548;2022-09-09T09:15:48;4.85;;;1.50;;
9138;SDS011;4604;48.616;9.548;2022-09-09T09:18:18;1.85;;;1.20;;
9138;SDS011;4604;48.616;9.548;2022-09-09T09:20:49;3.80;;;1.50;;
9138;SDS011;4604;48.616;9.548;2022-09-09T09:23:21;3.67;;;1.35;;
9138;SDS011;4604;48.616;9.548;2022-09-09T09:25:50;2.17;;;1.50;;
9138;SDS011;4604;48.616;9.548;2022-09-09T09:28:23;1.45;;;1.30;;
9138;SDS011;4604;48.616;9.548;2022-09-09T09:30:54;3.35;;;1.40;;
9138;SDS011;4604;48.616;9.548;2022-09-09T09:33:27;3.42;;;1.42;;
9138;SDS011;4604;48.616;9.548;2022-09-09T09:36:02;5.20;;;1.38;;
9138;SDS011;4604;48.616;9.548;2022-09-09T09:38:31;3.30;;;1.20;;
9138;SDS011;4604;48.616;9.548;2022-09-09T09:40:59;2.10;;;1.30;;
9138;SDS011;4604;48.616;9.548;2022-09-09T09:43:26;4.82;;;1.38;;
9138;SDS011;4604;48.616;9.548;2022-09-09T09:45:56;10.32;;;1.67;;
9138;SDS011;4604;48.616;9.548;2022-09-09T09:48:24;4.57;;;1.30;;
9138;SDS011;4604;48.616;9.548;2022-09-09T09:50:52;4.28;;;1.55;;
9138;SDS011;4604;48.616;9.548;2022-09-09T09:53:24;3.25;;;1.30;;
9138;SDS011;4604;48.616;9.548;2022-09-09T09:55:53;2.97;;;1.35;;
9138;SDS011;4604;48.616;9.548;2022-09-09T09:58:22;2.92;;;1.30;;
9138;SDS011;4604;48.616;9.548;2022-09-09T10:00:51;2.45;;;1.10;;
9138;SDS011;4604;48.616;9.548;2022-09-09T10:03:22;2.25;;;1.27;;
9138;SDS011;4604;48.616;9.548;2022-09-09T10:05:51;1.55;;;0.98;;
9138;SDS011;4604;48.616;9.548;2022-09-09T10:08:18;2.38;;;1.35;;
9138;SDS011;4604;48.616;9.548;2022-09-09T10:10:48;2.25;;;1.10;;
9138;SDS011;4604;48.616;9.548;2022-09-09T10:13:24;2.20;;;1.00;;
9138;SDS011;4604;48.616;9.548;2022-09-09T10:18:45;2.33;;;0.75;;
9138;SDS011;4604;48.616;9.548;2022-09-09T10:21:30;3.60;;;1.23;;
9138;SDS011;4604;48.616;9.548;2022-09-09T10:24:19;4.03;;;1.10;;
9138;SDS011;4604;48.616;9.548;2022-09-09T10:27:02;3.33;;;1.10;;
9138;SDS011;4604;48.616;9.548;2022-09-09T10:29:42;2.80;;;1.08;;
9138;SDS011;4604;48.616;9.548;2022-09-09T10:32:33;5.18;;;0.98;;
9138;SDS011;4604;48.616;9.548;2022-09-09T10:35:09;2.72;;;1.00;;
9138;SDS011;4604;48.616;9.548;2022-09-09T10:40:40;0.73;;;0.73;;
9138;SDS011;4604;48.616;9.548;2022-09-09T10:43:20;2.47;;;1.00;;
9138;SDS011;4604;48.616;9.548;2022-09-09T10:46:04;2.60;;;1.10;;
9138;SDS011;4604;48.616;9.548;2022-09-09T10:48:43;2.35;;;1.05;;
9138;SDS011;4604;48.616;9.548;2022-09-09T10:51:26;0.95;;;0.63;;
9138;SDS011;4604;48.616;9.548;2022-09-09T10:54:06;1.05;;;0.77;;
9138;SDS011;4604;48.616;9.548;2022-09-09T10:56:44;3.17;;;1.17;;
9138;SDS011;4604;48.616;9.548;2022-09-09T10:59:19;3.55;;;1.00;;
9138;SDS011;4604;48.616;9.548;2022-09-09T11:01:51;3.75;;;1.20;;
9138;SDS011;4604;48.616;9.548;2022-09-09T11:04:24;1.58;;;1.00;;
9138;SDS011;4604;48.616;9.548;2022-09-09T11:06:55;1.83;;;1.10;;
9138;SDS011;4604;48.616;9.548;2022-09-09T11:09:23;2.53;;;1.25;;
9138;SDS011;4604;48.616;9.548;2022-09-09T11:11:53;0.60;;;0.60;;
9138;SDS011;4604;48.616;9.548;2022-09-09T11:14:22;3.45;;;0.88;;
9138;SDS011;4604;48.616;9.548;2022-09-09T11:16:57;1.17;;;0.82;;
9138;SDS011;4604;48.616;9.548;2022-09-09T11:19:28;1.70;;;1.08;;
9138;SDS011;4604;48.616;9.548;2022-09-09T11:22:02;1.48;;;0.82;;
9138;SDS011;4604;48.616;9.548;2022-09-09T11:24:35;1.75;;;0.80;;
9138;SDS011;4604;48.616;9.548;2022-09-09T11:27:07;2.05;;;0.90;;
9138;SDS011;4604;48.616;9.548;2022-09-09T11:35:45;0.85;;;0.80;;
9138;SDS011;4604;48.616;9.548;2022-09-09T11:38:25;3.65;;;1.27;;
9138;SDS011;4604;48.616;9.548;2022-09-09T11:40:55;0.85;;;0.50;;
9138;SDS011;4604;48.616;9.548;2022-09-09T11:43:27;1.98;;;1.10;;
9138;SDS011;4604;48.616;9.548;2022-09-09T11:45:57;1.35;;;0.73;;
9138;SDS011;4604;48.616;9.548;2022-09-09T11:48:29;2.35;;;0.68;;
9138;SDS011;4604;48.616;9.548;2022-09-09T11:51:06;1.35;;;0.73;;
9138;SDS011;4604;48.616;9.548;2022-09-09T11:53:35;1.40;;;0.70;;
9138;SDS011;4604;48.616;9.548;2022-09-09T11:56:13;2.55;;;1.08;;
9138;SDS011;4604;48.616;9.548;2022-09-09T11:58:55;1.85;;;1.00;;
9138;SDS011;4604;48.616;9.548;2022-09-09T12:01:29;3.60;;;1.10;;
9138;SDS011;4604;48.616;9.548;2022-09-09T12:04:11;1.67;;;0.93;;
9138;SDS011;4604;48.616;9.548;2022-09-09T12:06:44;1.08;;;0.80;;
9138;SDS011;4604;48.616;9.548;2022-09-09T12:09:17;2.70;;;1.42;;
9138;SDS011;4604;48.616;9.548;2022-09-09T12:11:49;1.70;;;0.90;;
9138;SDS011;4604;48.616;9.548;2022-09-09T12:14:20;1.42;;;0.98;;
9138;SDS011;4604;48.616;9.548;2022-09-09T12:16:48;3.63;;;1.02;;
9138;SDS011;4604;48.616;9.548;2022-09-09T12:19:22;3.40;;;0.93;;
9138;SDS011;4604;48.616;9.548;2022-09-09T12:21:51;3.33;;;1.33;;
9138;SDS011;4604;48.616;9.548;2022-09-09T12:24:32;1.08;;;0.73;;
9138;SDS011;4604;48.616;9.548;2022-09-09T12:27:05;1.55;;;0.77;;
9138;SDS011;4604;48.616;9.548;2022-09-09T12:29:41;3.22;;;1.02;;
9138;SDS011;4604;48.616;9.548;2022-09-09T12:32:17;1.00;;;0.70;;
9138;SDS011;4604;48.616;9.548;2022-09-09T12:34:48;2.35;;;1.15;;
9138;SDS011;4604;48.616;9.548;2022-09-09T12:37:21;1.65;;;0.82;;
9138;SDS011;4604;48.616;9.548;2022-09-09T12:39:55;0.65;;;0.65;;
9138;SDS011;4604;48.616;9.548;2022-09-09T12:42:23;0.50;;;0.50;;
9138;SDS011;4604;48.616;9.548;2022-09-09T12:44:51;1.90;;;0.93;;
9138;SDS011;4604;48.616;9.548;2022-09-09T12:47:19;2.65;;;0.85;;
9138;SDS011;4604;48.616;9.548;2022-09-09T12:49:48;4.13;;;0.85;;
9138;SDS011;4604;48.616;9.548;2022-09-09T12:52:18;0.47;;;0.47;;
9138;SDS011;4604;48.616;9.548;2022-09-09T12:54:49;0.60;;;0.60;;
9138;SDS011;4604;48.616;9.548;2022-09-09T12:57:20;1.50;;;0.70;;
9138;SDS011;4604;48.616;9.548;2022-09-09T12:59:50;3.35;;;0.60;;
9138;SDS011;4604;48.616;9.548;2022-09-09T13:02:19;1.85;;;0.70;;
9138;SDS011;4604;48.616;9.548;2022-09-09T13:04:48;1.13;;;0.47;;
9138;SDS011;4604;48.616;9.548;2022-09-09T13:07:16;2.10;;;0.65;;
9138;SDS011;4604;48.616;9.548;2022-09-09T13:09:45;3.42;;;0.73;;
9138;SDS011;4604;48.616;9.548;2022-09-09T13:12:14;0.98;;;0.70;;
9138;SDS011;4604;48.616;9.548;2022-09-09T13:14:46;2.47;;;0.85;;
9138;SDS011;4604;48.616;9.548;2022-09-09T13:17:17;0.60;;;0.45;;
9138;SDS011;4604;48.616;9.548;2022-09-09T13:19:46;3.78;;;0.70;;
9138;SDS011;4604;48.616;9.548;2022-09-09T13:22:19;2.47;;;0.80;;
9138;SDS011;4604;48.616;9.548;2022-09-09T13:24:48;1.60;;;0.82;;
9138;SDS011;4604;48.616;9.548;2022-09-09T13:27:29;4.22;;;0.73;;
9138;SDS011;4604;48.616;9.548;2022-09-09T13:33:01;2.13;;;1.10;;
9138;SDS011;4604;48.616;9.548;2022-09-09T13:35:31;1.75;;;0.80;;
9138;SDS011;4604;48.616;9.548;2022-09-09T13:40:52;2.28;;;0.77;;
9138;SDS011;4604;48.616;9.548;2022-09-09T13:43:21;1.98;;;0.95;;
9138;SDS011;4604;48.616;9.548;2022-09-09T13:45:55;3.28;;;1.27;;
9138;SDS011;4604;48.616;9.548;2022-09-09T13:48:24;2.85;;;1.00;;
9138;SDS011;4604;48.616;9.548;2022-09-09T13:50:58;1.83;;;1.00;;
9138;SDS011;4604;48.616;9.548;2022-09-09T13:53:26;1.23;;;0.70;;
9138;SDS011;4604;48.616;9.548;2022-09-09T13:55:53;1.20;;;0.70;;
9138;SDS011;4604;48.616;9.548;2022-09-09T13:58:22;1.85;;;0.73;;
9138;SDS011;4604;48.616;9.548;2022-09-09T14:00:50;1.42;;;0.50;;
9138;SDS011;4604;48.616;9.548;2022-09-09T14:03:18;4.18;;;0.70;;
9138;SDS011;4604;48.616;9.548;2022-09-09T14:05:45;3.05;;;0.77;;
9138;SDS011;4604;48.616;9.548;2022-09-09T14:08:23;1.85;;;0.68;;
9138;SDS011;4604;48.616;9.548;2022-09-09T14:10:53;1.33;;;0.82;;
9138;SDS011;4604;48.616;9.548;2022-09-09T14:13:22;5.13;;;0.95;;
9138;SDS011;4604;48.616;9.548;2022-09-09T14:15:49;0.73;;;0.57;;
9138;SDS011;4604;48.616;9.548;2022-09-09T14:18:19;3.72;;;0.88;;
9138;SDS011;4604;48.616;9.548;2022-09-09T14:20:47;3.10;;;0.90;;
9138;SDS011;4604;48.616;9.548;2022-09-09T14:23:15;1.42;;;0.70;;
9138;SDS011;4604;48.616;9.548;2022-09-09T14:25:43;0.93;;;0.55;;
9138;SDS011;4604;48.616;9.548;2022-09-09T14:28:12;0.82;;;0.50;;
9138;SDS011;4604;48.616;9.548;2022-09-09T14:30:40;1.10;;;0.57;;
9138;SDS011;4604;48.616;9.548;2022-09-09T14:33:09;1.90;;;1.02;;
9138;SDS011;4604;48.616;9.548;2022-09-09T14:35:40;2.70;;;0.68;;
9138;SDS011;4604;48.616;9.548;2022-09-09T14:38:07;1.27;;;0.55;;
9138;SDS011;4604;48.616;9.548;2022-09-09T14:40:35;2.60;;;0.95;;
9138;SDS011;4604;48.616;9.548;2022-09-09T14:43:03;1.00;;;0.60;;
9138;SDS011;4604;48.616;9.548;2022-09-09T14:45:30;3.42;;;0.50;;
9138;SDS011;4604;48.616;9.548;2022-09-09T14:47:57;0.98;;;0.50;;
9138;SDS011;4604;48.616;9.548;2022-09-09T14:50:24;2.92;;;0.73;;
9138;SDS011;4604;48.616;9.548;2022-09-09T14:52:52;3.33;;;0.88;;
9138;SDS011;4604;48.616;9.548;2022-09-09T14:55:19;1.58;;;0.60;;
9138;SDS011;4604;48.616;9.548;2022-09-09T14:57:46;1.95;;;0.57;;
9138;SDS011;4604;48.616;9.548;2022-09-09T15:00:13;6.53;;;0.80;;
9138;SDS011;4604;48.616;9.548;2022-09-09T15:02:41;1.00;;;0.55;;
9138;SDS011;4604;48.616;9.548;2022-09-09T15:05:08;3.33;;;0.80;;
9138;SDS011;4604;48.616;9.548;2022-09-09T15:07:35;3.25;;;0.65;;
9138;SDS011;4604;48.616;9.548;2022-09-09T15:10:05;4.13;;;1.00;;
9138;SDS011;4604;48.616;9.548;2022-09-09T15:12:32;2.58;;;0.85;;
9138;SDS011;4604;48.616;9.548;2022-09-09T15:15:00;3.83;;;0.82;;
9138;SDS011;4604;48.616;9.548;2022-09-09T15:17:27;2.80;;;0.60;;
9138;SDS011;4604;48.616;9.548;2022-09-09T15:19:54;1.27;;;0.60;;
9138;SDS011;4604;48.616;9.548;2022-09-09T15:22:21;1.92;;;0.60;;
9138;SDS011;4604;48.616;9.548;2022-09-09T15:24:49;1.27;;;0.65;;
9138;SDS011;4604;48.616;9.548;2022-09-09T15:27:17;2.63;;;0.88;;
9138;SDS011;4604;48.616;9.548;2022-09-09T15:29:44;1.52;;;0.45;;
9138;SDS011;4604;48.616;9.548;2022-09-09T15:32:12;0.93;;;0.70;;
9138;SDS011;4604;48.616;9.548;2022-09-09T15:34:39;2.85;;;1.15;;
9138;SDS011;4604;48.616;9.548;2022-09-09T15:37:06;1.35;;;0.50;;
9138;SDS011;4604;48.616;9.548;2022-09-09T15:39:32;1.65;;;0.57;;
9138;SDS011;4604;48.616;9.548;2022-09-09T15:42:02;3.28;;;0.73;;
9138;SDS011;4604;48.616;9.548;2022-09-09T15:44:30;0.75;;;0.40;;
9138;SDS011;4604;48.616;9.548;2022-09-09T15:47:04;2.05;;;0.93;;
9138;SDS011;4604;48.616;9.548;2022-09-09T15:49:32;1.70;;;0.50;;
9138;SDS011;4604;48.616;9.548;2022-09-09T15:51:59;1.92;;;0.73;;
9138;SDS011;4604;48.616;9.548;2022-09-09T15:54:27;2.45;;;0.70;;
9138;SDS011;4604;48.616;9.548;2022-09-09T15:56:57;1.20;;;0.85;;